Time,TemperatureF,DewpointF,PressureIn,WindDirection,WindDirectionDegrees,WindSpeedMPH,WindSpeedGustMPH,Humidity,HourlyPrecipIn,Conditions,Clouds,dailyrainin,SoftwareType,DateUTC
2013-02-23 00:11:00,44.0,10.0,29.93,NW,322,7.0,14.0,25,0.00,,,0.00,,2013-02-23 06:11:00,
2013-02-23 00:22:00,43.0,10.0,29.92,WNW,299,10.0,12.0,26,0.00,,,0.00,,2013-02-23 06:22:00,
2013-02-23 00:31:00,43.0,10.0,29.92,WNW,299,10.0,12.0,26,0.00,,,0.00,,2013-02-23 06:31:00,
2013-02-23 00:42:00,43.0,10.0,29.92,WNW,299,10.0,12.0,26,0.00,,,0.00,,2013-02-23 06:42:00,
2013-02-23 00:52:00,43.0,11.0,29.93,NW,313,9.0,16.0,27,0.00,,,0.00,,2013-02-23 06:52:00,
2013-02-23 01:00:00,42.0,11.0,29.91,NNW,329,11.0,17.0,28,0.00,,,0.00,,2013-02-23 07:00:00,
2013-02-23 01:01:00,43.0,11.0,29.93,NW,313,9.0,16.0,27,0.00,,,0.00,,2013-02-23 07:01:00,
2013-02-23 01:11:00,43.0,11.0,29.93,NW,313,9.0,16.0,27,0.00,,,0.00,,2013-02-23 07:11:00,
2013-02-23 01:21:00,42.0,11.0,29.91,NNW,329,11.0,17.0,28,0.00,,,0.00,,2013-02-23 07:21:00,
2013-02-23 01:31:00,42.0,11.0,29.91,NNW,329,11.0,17.0,28,0.00,,,0.00,,2013-02-23 07:31:00,
2013-02-23 01:42:00,42.0,11.0,29.91,NNW,329,11.0,17.0,28,0.00,,,0.00,,2013-02-23 07:42:00,
2013-02-23 01:52:00,42.0,11.0,29.91,NNW,329,11.0,17.0,28,0.00,,,0.00,,2013-02-23 07:52:00,
2013-02-23 02:21:00,42.0,12.0,29.93,WNW,287,8.0,18.0,29,0.00,,,0.00,,2013-02-23 08:21:00,
2013-02-23 02:32:00,42.0,12.0,29.93,WNW,287,8.0,18.0,29,0.00,,,0.00,,2013-02-23 08:32:00,
2013-02-23 02:42:00,42.0,12.0,29.93,WNW,287,8.0,18.0,29,0.00,,,0.00,,2013-02-23 08:42:00,
2013-02-23 02:52:00,43.0,12.0,29.92,WSW,257,5.0,17.0,28,0.00,,,0.00,,2013-02-23 08:52:00,
2013-02-23 03:01:00,43.0,12.0,29.92,WSW,257,5.0,17.0,28,0.00,,,0.00,,2013-02-23 09:01:00,
2013-02-23 03:11:00,43.0,12.0,29.92,WSW,257,5.0,17.0,28,0.00,,,0.00,,2013-02-23 09:11:00,
2013-02-23 03:21:00,44.0,14.0,29.91,West,277,5.0,18.0,29,0.00,,,0.00,,2013-02-23 09:21:00,
2013-02-23 03:30:00,43.0,14.0,29.91,NW,305,7.0,12.0,30,0.00,,,0.00,,2013-02-23 09:30:00,
2013-02-23 03:31:00,44.0,14.0,29.91,West,277,5.0,18.0,29,0.00,,,0.00,,2013-02-23 09:31:00,
2013-02-23 03:42:00,44.0,14.0,29.91,West,277,5.0,18.0,29,0.00,,,0.00,,2013-02-23 09:42:00,
2013-02-23 03:52:00,43.0,14.0,29.91,NW,305,7.0,12.0,30,0.00,,,0.00,,2013-02-23 09:52:00,
2013-02-23 04:01:00,43.0,14.0,29.91,NW,305,7.0,12.0,30,0.00,,,0.00,,2013-02-23 10:01:00,
2013-02-23 04:11:00,43.0,14.0,29.91,NW,305,7.0,12.0,30,0.00,,,0.00,,2013-02-23 10:11:00,
2013-02-23 04:21:00,43.0,14.0,29.91,NW,305,7.0,12.0,30,0.00,,,0.00,,2013-02-23 10:21:00,
2013-02-23 05:22:00,37.0,13.0,29.94,WNW,298,0.0,0.0,37,0.00,,,0.00,,2013-02-23 11:22:00,
2013-02-23 05:32:00,37.0,13.0,29.94,WNW,298,0.0,0.0,37,0.00,,,0.00,,2013-02-23 11:32:00,
2013-02-23 05:42:00,37.0,13.0,29.94,WNW,298,0.0,0.0,37,0.00,,,0.00,,2013-02-23 11:42:00,
2013-02-23 05:52:00,36.0,15.0,29.94,WNW,298,0.0,0.0,41,0.00,,,0.00,,2013-02-23 11:52:00,
2013-02-23 06:00:00,37.0,15.0,29.96,WNW,299,0.0,0.0,40,0.00,,,0.00,,2013-02-23 12:00:00,
2013-02-23 06:01:00,36.0,15.0,29.94,WNW,298,0.0,0.0,41,0.00,,,0.00,,2013-02-23 12:01:00,
2013-02-23 06:11:00,36.0,15.0,29.94,WNW,298,0.0,0.0,41,0.00,,,0.00,,2013-02-23 12:11:00,
2013-02-23 06:21:00,37.0,15.0,29.96,WNW,299,0.0,0.0,40,0.00,,,0.00,,2013-02-23 12:21:00,
2013-02-23 06:32:00,37.0,15.0,29.96,WNW,299,0.0,0.0,40,0.00,,,0.00,,2013-02-23 12:32:00,
2013-02-23 06:42:00,37.0,15.0,29.96,WNW,299,0.0,0.0,40,0.00,,,0.00,,2013-02-23 12:42:00,
2013-02-23 06:52:00,37.0,15.0,29.96,WNW,299,0.0,0.0,40,0.00,,,0.00,,2013-02-23 12:52:00,
2013-02-23 07:22:00,34.0,15.0,29.98,NW,312,0.0,0.0,46,0.00,,,0.00,,2013-02-23 13:22:00,
2013-02-23 07:32:00,34.0,15.0,29.98,NW,312,0.0,0.0,46,0.00,,,0.00,,2013-02-23 13:32:00,
2013-02-23 07:42:00,34.0,15.0,29.98,NW,312,0.0,0.0,46,0.00,,,0.00,,2013-02-23 13:42:00,
2013-02-23 07:52:00,32.0,15.0,29.96,NW,313,0.0,0.0,49,0.00,,,0.00,,2013-02-23 13:52:00,
2013-02-23 08:02:00,32.0,15.0,29.96,NW,313,0.0,0.0,49,0.00,,,0.00,,2013-02-23 14:02:00,
2013-02-23 08:11:00,32.0,15.0,29.96,NW,313,0.0,0.0,49,0.00,,,0.00,,2013-02-23 14:11:00,
2013-02-23 08:21:00,33.0,15.0,29.95,ESE,117,0.0,0.0,48,0.00,,,0.00,,2013-02-23 14:21:00,
2013-02-23 08:32:00,33.0,15.0,29.95,ESE,117,0.0,0.0,48,0.00,,,0.00,,2013-02-23 14:32:00,
2013-02-23 08:42:00,33.0,15.0,29.95,ESE,117,0.0,0.0,48,0.00,,,0.00,,2013-02-23 14:42:00,
2013-02-23 08:52:00,36.0,17.0,29.95,ESE,112,0.0,0.0,46,0.00,,,0.00,,2013-02-23 14:52:00,
2013-02-23 09:01:00,36.0,17.0,29.95,ESE,112,0.0,0.0,46,0.00,,,0.00,,2013-02-23 15:01:00,
2013-02-23 09:11:00,36.0,17.0,29.95,ESE,112,0.0,0.0,46,0.00,,,0.00,,2013-02-23 15:11:00,
2013-02-23 09:21:00,45.0,19.0,29.95,NW,306,13.0,24.0,35,0.00,,,0.00,,2013-02-23 15:21:00,
2013-02-23 09:52:00,48.0,19.0,29.94,WSW,256,7.0,21.0,31,0.00,,,0.00,,2013-02-23 15:52:00,
2013-02-23 10:01:00,48.0,19.0,29.94,WSW,256,7.0,21.0,31,0.00,,,0.00,,2013-02-23 16:01:00,
2013-02-23 10:11:00,48.0,19.0,29.94,WSW,256,7.0,21.0,31,0.00,,,0.00,,2013-02-23 16:11:00,
2013-02-23 10:21:00,50.0,19.0,29.95,West,280,8.0,17.0,29,0.00,,,0.00,,2013-02-23 16:21:00,
2013-02-23 10:30:00,52.0,20.0,29.95,West,264,8.0,18.0,28,0.00,,,0.00,,2013-02-23 16:30:00,
2013-02-23 10:31:00,50.0,19.0,29.95,West,280,8.0,17.0,29,0.00,,,0.00,,2013-02-23 16:31:00,
2013-02-23 10:42:00,50.0,19.0,29.95,West,280,8.0,17.0,29,0.00,,,0.00,,2013-02-23 16:42:00,
2013-02-23 10:52:00,52.0,20.0,29.95,West,264,8.0,18.0,28,0.00,,,0.00,,2013-02-23 16:52:00,
2013-02-23 11:01:00,52.0,20.0,29.95,West,264,8.0,18.0,28,0.00,,,0.00,,2013-02-23 17:01:00,
2013-02-23 11:11:00,52.0,20.0,29.95,West,264,8.0,18.0,28,0.00,,,0.00,,2013-02-23 17:11:00,
2013-02-23 11:21:00,52.0,20.0,29.95,West,264,8.0,18.0,28,0.00,,,0.00,,2013-02-23 17:21:00,
2013-02-23 11:30:00,56.0,17.0,29.95,SW,216,5.0,18.0,21,0.00,,,0.00,,2013-02-23 17:30:00,
2013-02-23 11:52:00,56.0,17.0,29.95,SW,216,5.0,18.0,21,0.00,,,0.00,,2013-02-23 17:52:00,
2013-02-23 12:01:00,56.0,17.0,29.95,SW,216,5.0,18.0,21,0.00,,,0.00,,2013-02-23 18:01:00,
2013-02-23 12:12:00,56.0,17.0,29.95,SW,216,5.0,18.0,21,0.00,,,0.00,,2013-02-23 18:12:00,
2013-02-23 12:21:00,56.0,17.0,29.95,SW,216,5.0,18.0,21,0.00,,,0.00,,2013-02-23 18:21:00,
2013-02-23 12:30:00,59.0,18.0,29.93,SW,222,9.0,19.0,20,0.00,,,0.00,,2013-02-23 18:30:00,
2013-02-23 12:52:00,59.0,18.0,29.93,SW,222,9.0,19.0,20,0.00,,,0.00,,2013-02-23 18:52:00,
2013-02-23 13:01:00,59.0,18.0,29.93,SW,222,9.0,19.0,20,0.00,,,0.00,,2013-02-23 19:01:00,
2013-02-23 13:11:00,59.0,18.0,29.93,SW,222,9.0,19.0,20,0.00,,,0.00,,2013-02-23 19:11:00,
2013-02-23 13:21:00,59.0,18.0,29.93,SW,222,9.0,19.0,20,0.00,,,0.00,,2013-02-23 19:21:00,
2013-02-23 13:52:00,61.0,17.0,29.91,WNW,284,5.0,20.0,18,0.00,,,0.00,,2013-02-23 19:52:00,
2013-02-23 14:01:00,61.0,17.0,29.91,WNW,284,5.0,20.0,18,0.00,,,0.00,,2013-02-23 20:01:00,
2013-02-23 14:11:00,61.0,17.0,29.91,WNW,284,5.0,20.0,18,0.00,,,0.00,,2013-02-23 20:11:00,
2013-02-23 14:21:00,62.0,18.0,29.88,West,264,3.0,17.0,18,0.00,,,0.00,,2013-02-23 20:21:00,
2013-02-23 14:32:00,62.0,18.0,29.88,West,264,3.0,17.0,18,0.00,,,0.00,,2013-02-23 20:32:00,
2013-02-23 14:42:00,62.0,18.0,29.88,West,264,3.0,17.0,18,0.00,,,0.00,,2013-02-23 20:42:00,
2013-02-23 14:52:00,65.0,18.0,29.86,West,277,9.0,20.0,16,0.00,,,0.00,,2013-02-23 20:52:00,
2013-02-23 15:01:00,65.0,18.0,29.86,West,277,9.0,20.0,16,0.00,,,0.00,,2013-02-23 21:01:00,
2013-02-23 15:11:00,65.0,15.0,29.84,NNW,328,13.0,17.0,14,0.00,,,0.00,,2013-02-23 21:11:00,
2013-02-23 15:22:00,65.0,15.0,29.84,NNW,328,13.0,17.0,14,0.00,,,0.00,,2013-02-23 21:22:00,
2013-02-23 15:30:00,65.0,13.0,29.84,WNW,295,10.0,18.0,13,0.00,,,0.00,,2013-02-23 21:30:00,
2013-02-23 15:31:00,65.0,15.0,29.84,NNW,328,13.0,17.0,14,0.00,,,0.00,,2013-02-23 21:31:00,
2013-02-23 15:42:00,65.0,15.0,29.84,NNW,328,13.0,17.0,14,0.00,,,0.00,,2013-02-23 21:42:00,
2013-02-23 15:52:00,65.0,13.0,29.84,WNW,295,10.0,18.0,13,0.00,,,0.00,,2013-02-23 21:52:00,
2013-02-23 16:01:00,65.0,13.0,29.84,WNW,295,10.0,18.0,13,0.00,,,0.00,,2013-02-23 22:01:00,
2013-02-23 16:11:00,65.0,13.0,29.84,WNW,295,10.0,18.0,13,0.00,,,0.00,,2013-02-23 22:11:00,
2013-02-23 16:21:00,65.0,13.0,29.84,WNW,295,10.0,18.0,13,0.00,,,0.00,,2013-02-23 22:21:00,
2013-02-23 16:52:00,64.0,12.0,29.80,WNW,289,1.0,17.0,13,0.00,,,0.00,,2013-02-23 22:52:00,
2013-02-23 17:01:00,64.0,12.0,29.80,WNW,289,1.0,17.0,13,0.00,,,0.00,,2013-02-23 23:01:00,
2013-02-23 17:11:00,64.0,12.0,29.79,SW,219,2.0,17.0,13,0.00,,,0.00,,2013-02-23 23:11:00,
2013-02-23 17:21:00,64.0,12.0,29.79,SW,219,2.0,17.0,13,0.00,,,0.00,,2013-02-23 23:21:00,
2013-02-23 17:31:00,64.0,12.0,29.79,SW,219,2.0,17.0,13,0.00,,,0.00,,2013-02-23 23:31:00,
2013-02-23 17:42:00,64.0,12.0,29.79,SW,219,2.0,17.0,13,0.00,,,0.00,,2013-02-23 23:42:00,
2013-02-23 17:52:00,64.0,14.0,29.79,WSW,248,0.0,4.0,14,0.00,,,0.00,,2013-02-23 23:52:00,
2013-02-23 18:01:00,64.0,14.0,29.79,WSW,248,0.0,4.0,14,0.00,,,0.00,,2013-02-24 00:01:00,
2013-02-23 18:11:00,64.0,14.0,29.79,WSW,248,0.0,4.0,14,0.00,,,0.00,,2013-02-24 00:11:00,
2013-02-23 18:22:00,62.0,14.0,29.80,West,264,0.0,5.0,15,0.00,,,0.00,,2013-02-24 00:22:00,
2013-02-23 18:32:00,62.0,14.0,29.80,West,264,0.0,5.0,15,0.00,,,0.00,,2013-02-24 00:32:00,
2013-02-23 18:42:00,62.0,14.0,29.80,West,264,0.0,5.0,15,0.00,,,0.00,,2013-02-24 00:42:00,
2013-02-23 18:52:00,59.0,16.0,29.81,SSW,208,2.0,10.0,18,0.00,,,0.00,,2013-02-24 00:52:00,
2013-02-23 19:01:00,59.0,16.0,29.81,SSW,208,2.0,10.0,18,0.00,,,0.00,,2013-02-24 01:01:00,
2013-02-23 19:11:00,59.0,16.0,29.81,SSW,208,2.0,10.0,18,0.00,,,0.00,,2013-02-24 01:11:00,
2013-02-23 19:22:00,56.0,14.0,29.80,NW,315,0.0,0.0,19,0.00,,,0.00,,2013-02-24 01:22:00,
2013-02-23 19:30:00,54.0,13.0,29.80,WNW,291,0.0,0.0,19,0.00,,,0.00,,2013-02-24 01:30:00,
2013-02-23 19:31:00,56.0,14.0,29.80,NW,315,0.0,0.0,19,0.00,,,0.00,,2013-02-24 01:31:00,
2013-02-23 19:42:00,56.0,14.0,29.80,NW,315,0.0,0.0,19,0.00,,,0.00,,2013-02-24 01:42:00,
2013-02-23 19:52:00,54.0,13.0,29.80,WNW,291,0.0,0.0,19,0.00,,,0.00,,2013-02-24 01:52:00,
2013-02-23 20:01:00,54.0,13.0,29.80,WNW,291,0.0,0.0,19,0.00,,,0.00,,2013-02-24 02:01:00,
2013-02-23 20:11:00,54.0,13.0,29.80,WNW,291,0.0,0.0,19,0.00,,,0.00,,2013-02-24 02:11:00,
2013-02-23 20:21:00,54.0,13.0,29.80,WNW,291,0.0,0.0,19,0.00,,,0.00,,2013-02-24 02:21:00,
2013-02-23 20:52:00,50.0,11.0,29.80,West,275,0.0,0.0,20,0.00,,,0.00,,2013-02-24 02:52:00,
2013-02-23 21:02:00,50.0,11.0,29.80,West,275,0.0,0.0,20,0.00,,,0.00,,2013-02-24 03:02:00,
2013-02-23 21:11:00,47.0,10.0,29.81,West,281,0.0,0.0,22,0.00,,,0.00,,2013-02-24 03:11:00,
2013-02-23 21:21:00,47.0,10.0,29.81,West,281,0.0,0.0,22,0.00,,,0.00,,2013-02-24 03:21:00,
2013-02-23 21:31:00,47.0,10.0,29.81,West,281,0.0,0.0,22,0.00,,,0.00,,2013-02-24 03:31:00,
2013-02-23 21:42:00,47.0,10.0,29.81,West,281,0.0,0.0,22,0.00,,,0.00,,2013-02-24 03:42:00,
2013-02-23 21:52:00,46.0,10.0,29.80,West,275,0.0,0.0,23,0.00,,,0.00,,2013-02-24 03:52:00,
2013-02-23 22:01:00,46.0,10.0,29.80,West,275,0.0,0.0,23,0.00,,,0.00,,2013-02-24 04:01:00,
2013-02-23 22:11:00,46.0,10.0,29.80,West,275,0.0,0.0,23,0.00,,,0.00,,2013-02-24 04:11:00,
2013-02-23 22:21:00,47.0,10.0,29.80,SSE,150,0.0,0.0,22,0.00,,,0.00,,2013-02-24 04:21:00,
2013-02-23 22:31:00,47.0,10.0,29.80,SSE,150,0.0,0.0,22,0.00,,,0.00,,2013-02-24 04:31:00,
2013-02-23 22:42:00,47.0,10.0,29.80,SSE,150,0.0,0.0,22,0.00,,,0.00,,2013-02-24 04:42:00,
2013-02-23 22:52:00,46.0,9.0,29.80,SSE,150,0.0,0.0,22,0.00,,,0.00,,2013-02-24 04:52:00,
2013-02-23 23:01:00,46.0,9.0,29.80,SSE,150,0.0,0.0,22,0.00,,,0.00,,2013-02-24 05:01:00,
2013-02-23 23:11:00,46.0,9.0,29.80,SSE,150,0.0,0.0,22,0.00,,,0.00,,2013-02-24 05:11:00,
2013-02-23 23:22:00,46.0,10.0,29.79,SSE,150,0.0,0.0,23,0.00,,,0.00,,2013-02-24 05:22:00,
2013-02-23 23:32:00,46.0,10.0,29.79,SSE,150,0.0,0.0,23,0.00,,,0.00,,2013-02-24 05:32:00,
2013-02-23 23:42:00,46.0,10.0,29.79,SSE,150,0.0,0.0,23,0.00,,,0.00,,2013-02-24 05:42:00,
2013-02-23 23:52:00,45.0,10.0,29.79,WSW,240,0.0,0.0,24,0.00,,,0.00,,2013-02-24 05:52:00,